Time;durP1;ratioP1;P1;durP2;ratioP2;P2;SDS_P1;SDS_P2;PMS_P1;PMS_P2;Temp;Humidity;BMP_temperature;BMP_pressure;BME280_temperature;BME280_humidity;BME280_pressure;Samples;Min_cycle;Max_cycle;Signal;HPM_P1;HPM_P2
2022/09/29 00:01:40;;;;;;;8.50;7.60;;;7.90;99.90;;;;;;5010813;28;39589;-83
2022/09/29 00:04:09;;;;;;;14.20;9.00;;;7.90;99.90;;;;;;4983007;28;36607;-81
2022/09/29 00:06:47;;;;;;;9.87;8.23;;;7.90;99.90;;;;;;4983718;28;37982;-81
2022/09/29 00:09:31;;;;;;;9.00;7.87;;;7.90;99.90;;;;;;4991315;28;38148;-81
2022/09/29 00:12:04;;;;;;;10.13;7.93;;;7.90;99.90;;;;;;4999477;28;37665;-81
2022/09/29 00:14:40;;;;;;;7.97;7.13;;;7.90;99.90;;;;;;4984721;28;48354;-82
2022/09/29 00:17:13;;;;;;;8.50;7.60;;;7.90;99.90;;;;;;4979398;28;38096;-82
2022/09/29 00:19:43;;;;;;;9.43;8.37;;;7.80;99.90;;;;;;4981264;28;39226;-82
2022/09/29 00:22:13;;;;;;;9.53;8.10;;;7.80;99.90;;;;;;4985880;28;38833;-81
2022/09/29 00:24:50;;;;;;;10.07;7.63;;;7.80;99.90;;;;;;4977935;28;38450;-81
2022/09/29 00:27:37;;;;;;;7.80;6.87;;;7.80;99.90;;;;;;4985958;28;38818;-82
2022/09/29 00:30:23;;;;;;;8.93;7.97;;;7.80;99.90;;;;;;4994674;28;38937;-82
2022/09/29 00:32:51;;;;;;;10.80;9.00;;;7.80;99.90;;;;;;4990895;28;48169;-82
2022/09/29 00:35:27;;;;;;;9.37;7.43;;;7.80;99.90;;;;;;4989916;28;37503;-82
2022/09/29 00:37:55;;;;;;;6.40;5.70;;;7.60;99.90;;;;;;5009954;28;36749;-82
2022/09/29 00:40:30;;;;;;;8.87;7.47;;;7.70;99.90;;;;;;5001396;28;40250;-82
2022/09/29 00:42:59;;;;;;;10.73;8.40;;;7.60;99.90;;;;;;4987008;28;38293;-81
2022/09/29 00:45:27;;;;;;;10.87;7.70;;;7.60;99.90;;;;;;4999073;28;38809;-81
2022/09/29 00:48:16;;;;;;;9.60;7.90;;;7.60;99.90;;;;;;4989412;28;37549;-82
2022/09/29 00:51:04;;;;;;;11.20;7.97;;;7.60;99.90;;;;;;4991362;28;49350;-80
2022/09/29 00:53:41;;;;;;;11.23;9.53;;;7.60;99.90;;;;;;4996618;28;48898;-81
2022/09/29 00:56:13;;;;;;;11.20;9.40;;;7.60;99.90;;;;;;4952667;28;37929;-81
2022/09/29 00:59:06;;;;;;;14.93;9.53;;;7.60;99.90;;;;;;5006561;28;38432;-81
2022/09/29 01:04:14;;;;;;;13.97;10.20;;;7.50;99.90;;;;;;5359913;23;19931;-80
2022/09/29 01:06:58;;;;;;;15.32;11.95;;;7.50;99.90;;;;;;4967969;28;38932;-81
2022/09/29 01:09:38;;;;;;;14.80;11.63;;;7.50;99.90;;;;;;4981814;28;37853;-80
2022/09/29 01:12:12;;;;;;;20.87;12.37;;;7.50;99.90;;;;;;4964352;28;38121;-81
2022/09/29 01:14:47;;;;;;;17.47;12.03;;;7.50;99.90;;;;;;4958220;28;39696;-80
2022/09/29 01:17:40;;;;;;;16.43;11.13;;;7.50;99.90;;;;;;4980060;28;39448;-82
2022/09/29 01:20:24;;;;;;;15.97;12.20;;;7.40;99.90;;;;;;4979482;28;39031;-82
2022/09/29 01:23:30;;;;;;;13.23;10.80;;;7.40;99.90;;;;;;4987281;28;39665;-82
2022/09/29 01:26:22;;;;;;;16.87;12.37;;;7.40;99.90;;;;;;4965375;28;50389;-82
2022/09/29 01:32:36;;;;;;;14.77;10.73;;;7.30;99.90;;;;;;4988315;28;50806;-79
2022/09/29 01:36:00;;;;;;;13.97;11.27;;;7.30;99.90;;;;;;4993776;28;39525;-81
2022/09/29 01:39:11;;;;;;;14.98;11.50;;;7.30;99.90;;;;;;4958078;28;48840;-81
2022/09/29 01:42:28;;;;;;;14.87;11.43;;;7.40;99.90;;;;;;4922682;28;50912;-80
2022/09/29 01:45:17;;;;;;;15.63;10.53;;;7.40;99.90;;;;;;4975029;28;49029;-80
2022/09/29 01:48:12;;;;;;;15.30;10.70;;;7.30;99.90;;;;;;4957850;28;47604;-81
2022/09/29 01:50:51;;;;;;;14.57;11.67;;;7.30;99.90;;;;;;4963743;28;50230;-80
2022/09/29 01:53:44;;;;;;;17.77;12.70;;;7.30;99.90;;;;;;4968494;28;38402;-81
2022/09/29 01:56:47;;;;;;;15.90;13.25;;;7.30;99.90;;;;;;4944790;28;37123;-80
2022/09/29 01:59:28;;;;;;;15.65;11.20;;;7.30;99.90;;;;;;4996342;28;40202;-81
2022/09/29 02:02:10;;;;;;;13.73;10.83;;;7.20;99.90;;;;;;4974628;28;40768;-82
2022/09/29 02:04:50;;;;;;;11.43;9.47;;;7.20;99.90;;;;;;4958608;28;47992;-80
2022/09/29 02:07:43;;;;;;;14.90;10.33;;;7.20;99.90;;;;;;4964135;28;36412;-81
2022/09/29 02:10:21;;;;;;;18.03;12.50;;;7.20;99.90;;;;;;4952480;28;39224;-81
2022/09/29 02:13:15;;;;;;;10.83;9.60;;;7.10;99.90;;;;;;4956867;28;38386;-80
2022/09/29 02:15:51;;;;;;;12.07;10.23;;;7.10;99.90;;;;;;4964049;28;50154;-79
2022/09/29 02:18:52;;;;;;;16.80;12.33;;;7.10;99.90;;;;;;4969816;28;40438;-81
2022/09/29 02:21:28;;;;;;;14.87;12.00;;;7.10;99.90;;;;;;4983909;28;39201;-81
2022/09/29 02:23:58;;;;;;;17.20;14.27;;;7.10;99.90;;;;;;4977967;28;39294;-82
2022/09/29 02:26:35;;;;;;;15.63;13.50;;;7.10;99.90;;;;;;4999982;28;39566;-81
2022/09/29 02:29:04;;;;;;;17.77;13.23;;;7.10;99.90;;;;;;4976286;28;37988;-81
2022/09/29 02:31:41;;;;;;;17.67;14.53;;;7.00;99.90;;;;;;4981388;28;40644;-80
2022/09/29 02:34:12;;;;;;;16.90;12.10;;;7.00;99.90;;;;;;4945718;28;38792;-81
2022/09/29 02:36:45;;;;;;;15.50;12.60;;;7.00;99.90;;;;;;4971620;28;39146;-81
2022/09/29 02:39:41;;;;;;;14.13;12.37;;;7.00;99.90;;;;;;4979374;28;38035;-80
2022/09/29 02:42:56;;;;;;;14.30;11.50;;;7.00;99.90;;;;;;4961589;28;40073;-80
2022/09/29 02:45:49;;;;;;;16.17;12.97;;;7.00;99.90;;;;;;4988090;28;39998;-82
2022/09/29 02:48:41;;;;;;;12.93;11.63;;;7.00;99.90;;;;;;4952174;28;37677;-80
2022/09/29 02:51:24;;;;;;;16.85;13.15;;;7.00;99.90;;;;;;4962071;28;38257;-81
2022/09/29 02:54:34;;;;;;;15.97;13.13;;;6.90;99.90;;;;;;4990170;28;38580;-82
2022/09/29 02:57:58;;;;;;;17.63;12.80;;;6.90;99.90;;;;;;4961444;28;47969;-81
2022/09/29 03:00:38;;;;;;;16.30;13.63;;;6.90;99.90;;;;;;4956414;28;48545;-80
2022/09/29 03:03:06;;;;;;;17.07;13.43;;;6.90;99.90;;;;;;4990750;28;37618;-81
2022/09/29 03:05:47;;;;;;;16.00;12.33;;;6.80;99.90;;;;;;4980420;28;38854;-80
2022/09/29 03:08:16;;;;;;;15.03;13.43;;;6.80;99.90;;;;;;4964402;28;37867;-81
2022/09/29 03:10:44;;;;;;;18.03;14.30;;;6.80;99.90;;;;;;4955463;28;37241;-81
2022/09/29 03:13:15;;;;;;;17.03;14.23;;;6.80;99.90;;;;;;4951645;28;36694;-80
2022/09/29 03:15:42;;;;;;;18.13;14.13;;;6.80;99.90;;;;;;4940911;28;39533;-79
2022/09/29 03:18:21;;;;;;;20.60;14.33;;;6.80;99.90;;;;;;4952860;28;40017;-82
2022/09/29 03:20:48;;;;;;;17.90;14.60;;;6.80;99.90;;;;;;4927330;28;37576;-80
2022/09/29 03:23:21;;;;;;;19.67;15.57;;;6.80;99.90;;;;;;4932818;28;38433;-80
2022/09/29 03:25:52;;;;;;;17.50;14.60;;;6.80;99.90;;;;;;4937332;28;38166;-80
2022/09/29 03:28:22;;;;;;;18.90;14.27;;;6.70;99.90;;;;;;4933588;28;39197;-80
2022/09/29 03:30:54;;;;;;;16.27;14.23;;;6.70;99.90;;;;;;4935094;28;38063;-80
2022/09/29 03:33:34;;;;;;;20.73;15.52;;;6.80;99.90;;;;;;4943721;28;38399;-81
2022/09/29 03:36:21;;;;;;;16.67;14.87;;;6.70;99.90;;;;;;4949869;28;39518;-80
2022/09/29 03:38:58;;;;;;;23.70;17.03;;;6.70;99.90;;;;;;4950219;28;47411;-80
2022/09/29 03:41:40;;;;;;;18.57;14.90;;;6.80;99.90;;;;;;4952787;28;38879;-81
2022/09/29 03:44:16;;;;;;;15.55;13.45;;;6.70;99.90;;;;;;4918166;28;37856;-80
2022/09/29 03:47:10;;;;;;;24.27;18.43;;;6.70;99.90;;;;;;4938438;28;38866;-80
2022/09/29 03:49:44;;;;;;;24.30;16.83;;;6.70;99.90;;;;;;4993517;28;48948;-80
2022/09/29 03:52:12;;;;;;;25.00;17.43;;;6.70;99.90;;;;;;4975324;28;40548;-80
2022/09/29 03:54:40;;;;;;;24.53;16.30;;;6.80;99.90;;;;;;4968139;28;38219;-80
2022/09/29 03:57:12;;;;;;;22.77;15.07;;;6.80;99.90;;;;;;4971518;28;39384;-81
2022/09/29 03:59:39;;;;;;;24.00;16.07;;;6.80;99.90;;;;;;4977784;28;39955;-81
2022/09/29 04:02:34;;;;;;;22.47;15.70;;;6.70;99.90;;;;;;4969793;28;37135;-81
2022/09/29 04:05:02;;;;;;;25.47;16.90;;;6.70;99.90;;;;;;4960888;28;38001;-81
2022/09/29 04:07:38;;;;;;;23.10;16.73;;;6.80;99.90;;;;;;4962516;28;39379;-80
2022/09/29 04:10:10;;;;;;;29.23;18.93;;;6.70;99.90;;;;;;4973396;28;38054;-82
2022/09/29 04:12:41;;;;;;;22.27;16.87;;;6.70;99.90;;;;;;4987869;28;49036;-80
2022/09/29 04:15:09;;;;;;;36.17;19.70;;;6.70;99.90;;;;;;4987384;28;37862;-80
2022/09/29 04:17:38;;;;;;;24.10;18.87;;;6.70;99.90;;;;;;4977744;28;39611;-82
2022/09/29 04:20:07;;;;;;;31.93;19.63;;;6.60;99.90;;;;;;4969208;28;39845;-79
2022/09/29 04:22:47;;;;;;;29.60;18.30;;;6.60;99.90;;;;;;4980591;28;38460;-79
2022/09/29 04:25:19;;;;;;;27.40;18.27;;;6.60;99.90;;;;;;4973250;28;36946;-80
2022/09/29 04:27:58;;;;;;;27.23;19.27;;;6.60;99.90;;;;;;4969238;28;39009;-81
2022/09/29 04:30:41;;;;;;;22.87;17.93;;;6.60;99.90;;;;;;4950509;28;39952;-81
2022/09/29 04:33:15;;;;;;;31.97;20.57;;;6.60;99.90;;;;;;4971782;28;39507;-80
2022/09/29 04:35:50;;;;;;;22.03;17.50;;;6.60;99.90;;;;;;4979827;28;38130;-80
2022/09/29 04:38:37;;;;;;;26.57;19.33;;;6.60;99.90;;;;;;4990591;28;40007;-80
2022/09/29 04:41:06;;;;;;;26.93;20.27;;;6.60;99.90;;;;;;4969277;28;39028;-80
2022/09/29 04:43:51;;;;;;;25.47;20.27;;;6.60;99.90;;;;;;4965628;28;39010;-81
2022/09/29 04:46:28;;;;;;;25.23;18.70;;;6.60;99.90;;;;;;4971833;28;36866;-81
2022/09/29 04:49:26;;;;;;;31.33;21.50;;;6.60;99.90;;;;;;4981578;28;39555;-81
2022/09/29 04:51:56;;;;;;;19.83;16.20;;;6.60;99.90;;;;;;4988010;28;47871;-80
2022/09/29 04:54:23;;;;;;;49.33;26.07;;;6.60;99.90;;;;;;4969819;28;37492;-80
2022/09/29 04:56:58;;;;;;;31.83;21.60;;;6.70;99.90;;;;;;4985763;28;38749;-80
2022/09/29 04:59:31;;;;;;;33.03;22.60;;;6.60;99.90;;;;;;4985264;28;40225;-82
2022/09/29 05:17:33;;;;;;;30.50;22.07;;;6.60;99.90;;;;;;5946122;23;20022;-81
2022/09/29 05:20:08;;;;;;;24.77;18.73;;;6.70;99.90;;;;;;4926419;28;37204;-81
2022/09/29 05:23:08;;;;;;;28.30;21.77;;;6.70;99.90;;;;;;4930415;28;50090;-80
2022/09/29 05:25:49;;;;;;;31.20;22.85;;;6.70;99.90;;;;;;4941201;28;47925;-80
2022/09/29 05:28:48;;;;;;;26.07;20.10;;;6.80;99.90;;;;;;4931052;28;36243;-80
2022/09/29 05:31:20;;;;;;;34.37;23.30;;;6.80;99.90;;;;;;4940475;28;38192;-81
2022/09/29 05:34:03;;;;;;;29.33;22.27;;;6.80;99.90;;;;;;4945940;28;39286;-80
2022/09/29 05:36:39;;;;;;;35.87;24.03;;;6.90;99.90;;;;;;4937340;28;38423;-81
2022/09/29 05:39:33;;;;;;;36.80;24.93;;;6.90;99.90;;;;;;5015155;23;39472;-81
2022/09/29 05:47:42;;;;;;;40.40;27.97;;;7.00;99.90;;;;;;4959558;26;20447;-81
2022/09/29 05:50:43;;;;;;;47.43;30.80;;;7.10;99.90;;;;;;5011752;28;38518;-81
2022/09/29 05:53:14;;;;;;;29.50;23.37;;;7.20;99.90;;;;;;4999354;28;38178;-81
2022/09/29 05:55:44;;;;;;;31.30;25.23;;;7.20;99.90;;;;;;5009276;28;39239;-81
2022/09/29 05:58:33;;;;;;;34.93;27.30;;;7.20;99.90;;;;;;5019914;28;39829;-82
2022/09/29 06:01:05;;;;;;;34.60;26.17;;;7.20;99.90;;;;;;4999197;28;38867;-82
2022/09/29 06:03:42;;;;;;;29.63;22.93;;;7.20;99.90;;;;;;5015791;28;47660;-81
2022/09/29 06:06:29;;;;;;;30.97;23.47;;;7.20;99.90;;;;;;5001631;28;39250;-81
2022/09/29 06:09:00;;;;;;;24.53;20.50;;;7.20;99.90;;;;;;5015564;28;38539;-79
2022/09/29 06:11:32;;;;;;;24.17;20.03;;;7.30;99.90;;;;;;4999837;28;38656;-81
2022/09/29 06:14:40;;;;;;;29.37;23.17;;;7.30;99.90;;;;;;5008704;28;38203;-82
2022/09/29 06:17:38;;;;;;;27.30;22.83;;;7.40;99.90;;;;;;4980519;28;39638;-82
2022/09/29 06:23:46;;;;;;;25.20;20.80;;;7.20;99.90;;;;;;4998761;28;50788;-82
2022/09/29 06:26:45;;;;;;;36.37;26.37;;;7.20;99.90;;;;;;4968278;28;38584;-81
2022/09/29 06:29:23;;;;;;;21.70;18.87;;;7.20;99.90;;;;;;4984698;28;20027;-82
2022/09/29 06:32:13;;;;;;;24.60;20.53;;;7.30;99.90;;;;;;4977227;28;37188;-82
2022/09/29 06:37:34;;;;;;;29.07;24.07;;;7.40;99.90;;;;;;4994083;28;39238;-83
2022/09/29 06:40:08;;;;;;;27.13;23.33;;;7.50;99.90;;;;;;4996247;28;39157;-82
2022/09/29 06:42:46;;;;;;;40.77;28.63;;;7.60;99.90;;;;;;4949540;28;50216;-81
2022/09/29 06:45:29;;;;;;;28.97;23.40;;;7.60;99.90;;;;;;4986599;28;38651;-80
2022/09/29 06:48:14;;;;;;;23.83;21.30;;;7.70;99.90;;;;;;4941127;28;38211;-81
2022/09/29 06:51:10;;;;;;;29.07;23.17;;;7.70;99.90;;;;;;4932127;28;48458;-81
2022/09/29 06:53:41;;;;;;;28.13;23.80;;;7.70;99.90;;;;;;4916376;28;48306;-83
2022/09/29 06:56:33;;;;;;;28.00;22.60;;;7.70;99.90;;;;;;4974292;28;39250;-82
2022/09/29 06:59:15;;;;;;;26.83;23.90;;;7.80;99.90;;;;;;4977507;28;39047;-81
2022/09/29 07:01:49;;;;;;;;;;;7.80;99.90;;;;;;4961586;28;48929;-81
2022/09/29 07:04:22;;;;;;;28.33;23.00;;;7.90;99.90;;;;;;4924265;28;38916;-82
2022/09/29 07:07:12;;;;;;;30.97;24.63;;;7.90;99.90;;;;;;4974890;28;38727;-83
2022/09/29 07:10:11;;;;;;;37.47;29.10;;;8.00;99.90;;;;;;4959660;28;49813;-82
2022/09/29 07:12:55;;;;;;;47.47;33.33;;;8.00;99.90;;;;;;4972888;28;49722;-81
2022/09/29 07:15:32;;;;;;;26.60;22.27;;;8.20;99.90;;;;;;4963116;28;39830;-82
2022/09/29 07:18:08;;;;;;;31.97;26.63;;;8.30;99.90;;;;;;4985853;28;39504;-82
2022/09/29 07:20:54;;;;;;;37.23;30.03;;;8.40;99.90;;;;;;4949120;28;48869;-80
2022/09/29 07:24:02;;;;;;;45.47;32.97;;;8.40;99.90;;;;;;4925734;28;39177;-80
2022/09/29 07:26:46;;;;;;;67.97;45.23;;;8.60;99.90;;;;;;4973598;28;48867;-81
2022/09/29 07:29:25;;;;;;;42.60;34.50;;;8.90;99.90;;;;;;4958054;28;38861;-82
2022/09/29 07:39:28;;;;;;;53.83;39.93;;;9.40;99.90;;;;;;4956330;28;50754;-82
2022/09/29 07:42:07;;;;;;;57.40;41.57;;;9.50;99.90;;;;;;4981404;28;50049;-82
2022/09/29 07:44:45;;;;;;;53.23;40.60;;;9.60;99.90;;;;;;4978208;28;50314;-82
2022/09/29 07:47:25;;;;;;;47.07;38.10;;;9.70;99.90;;;;;;4992595;28;40102;-83
2022/09/29 07:49:59;;;;;;;50.93;39.17;;;9.80;99.90;;;;;;4999910;28;39406;-81
2022/09/29 07:52:39;;;;;;;48.20;39.27;;;9.90;99.90;;;;;;4982439;28;39177;-81
2022/09/29 07:55:50;;;;;;;42.87;36.03;;;9.90;99.90;;;;;;4980521;28;38312;-82
2022/09/29 07:58:31;;;;;;;43.93;33.93;;;9.90;99.90;;;;;;4997727;28;48841;-81
2022/09/29 08:01:09;;;;;;;47.63;36.10;;;9.90;99.90;;;;;;5006801;28;38884;-81
2022/09/29 08:03:43;;;;;;;48.23;36.40;;;10.00;99.90;;;;;;4985595;28;48842;-82
2022/09/29 08:11:24;;;;;;;55.10;41.90;;;10.20;99.90;;;;;;5653995;23;20051;-83
2022/09/29 08:13:53;;;;;;;46.60;36.83;;;10.30;99.90;;;;;;5300021;23;38093;-80
2022/09/29 08:24:19;;;;;;;49.20;35.00;;;10.70;99.90;;;;;;6023016;23;20022;-79
2022/09/29 08:26:50;;;;;;;44.10;33.70;;;10.80;99.90;;;;;;4993791;28;35132;-81
2022/09/29 08:29:21;;;;;;;35.50;29.50;;;10.90;99.90;;;;;;4962821;28;39111;-81
2022/09/29 08:32:27;;;;;;;42.90;34.87;;;10.90;99.90;;;;;;4973680;28;38906;-81
2022/09/29 08:35:05;;;;;;;41.63;33.33;;;10.90;99.90;;;;;;4981413;28;50064;-80
2022/09/29 08:37:47;;;;;;;29.47;25.47;;;10.90;99.90;;;;;;4980468;28;47594;-81
2022/09/29 08:47:03;;;;;;;44.20;33.17;;;11.10;99.90;;;;;;4978082;28;50621;-80
2022/09/29 08:49:59;;;;;;;32.50;28.93;;;11.20;99.90;;;;;;4952447;28;38189;-79
2022/09/29 08:53:10;;;;;;;37.33;32.03;;;11.30;99.90;;;;;;4945730;28;38747;-81
2022/09/29 08:56:20;;;;;;;32.47;27.80;;;11.40;99.90;;;;;;4930995;28;50197;-79
2022/09/29 08:59:11;;;;;;;41.28;31.58;;;11.50;99.90;;;;;;4957457;28;50085;-79
2022/09/29 09:02:13;;;;;;;38.58;30.63;;;11.50;99.90;;;;;;4988756;28;49245;-80
2022/09/29 09:05:34;;;;;;;35.47;25.67;;;11.50;99.90;;;;;;4994794;28;48509;-79
2022/09/29 09:12:14;;;;;;;25.47;22.00;;;11.80;99.90;;;;;;4973517;28;39154;-79
2022/09/29 09:14:50;;;;;;;21.67;19.38;;;11.80;99.90;;;;;;5003513;28;48791;-80
2022/09/29 09:17:33;;;;;;;27.67;23.55;;;11.80;99.90;;;;;;4998525;28;39008;-80
2022/09/29 09:20:23;;;;;;;17.42;14.50;;;11.90;99.90;;;;;;4987308;28;38487;-78
2022/09/29 09:23:01;;;;;;;21.92;17.13;;;12.00;99.90;;;;;;4992237;28;48547;-80
2022/09/29 09:25:37;;;;;;;15.45;13.73;;;12.10;99.90;;;;;;4998445;28;37239;-81
2022/09/29 09:28:27;;;;;;;18.45;16.45;;;12.30;99.90;;;;;;4979568;28;38787;-83
2022/09/29 09:31:05;;;;;;;16.88;15.18;;;12.50;99.90;;;;;;4965235;28;37997;-83
2022/09/29 09:33:49;;;;;;;21.38;14.40;;;12.50;99.90;;;;;;4973673;28;47205;-84
2022/09/29 09:36:42;;;;;;;10.30;6.22;;;12.70;99.90;;;;;;4958926;28;36689;-83
2022/09/29 09:39:16;;;;;;;8.43;7.22;;;13.00;99.90;;;;;;4949411;28;37993;-84
2022/09/29 09:41:47;;;;;;;7.63;6.82;;;13.30;99.90;;;;;;4968563;28;39450;-83
2022/09/29 09:44:16;;;;;;;11.15;8.85;;;13.30;99.90;;;;;;4970407;28;39323;-84
2022/09/29 09:46:53;;;;;;;9.77;6.75;;;13.40;99.90;;;;;;4967217;28;37484;-84
2022/09/29 09:49:26;;;;;;;3.88;2.70;;;13.70;99.90;;;;;;4968580;28;38093;-83
2022/09/29 09:51:59;;;;;;;3.28;2.95;;;13.70;99.90;;;;;;4966670;28;39776;-85
2022/09/29 09:54:25;;;;;;;3.05;2.78;;;13.90;99.90;;;;;;4958051;28;36893;-82
2022/09/29 09:57:33;;;;;;;4.85;2.70;;;14.10;99.90;;;;;;4972351;28;37011;-85
2022/09/29 10:00:26;;;;;;;5.60;3.70;;;14.20;99.90;;;;;;4958294;28;47454;-85
2022/09/29 10:02:55;;;;;;;5.47;2.72;;;14.50;99.90;;;;;;4963982;28;49088;-86
2022/09/29 10:05:44;;;;;;;2.65;2.42;;;14.70;99.90;;;;;;4967064;28;38506;-85
2022/09/29 10:08:37;;;;;;;3.67;3.03;;;14.70;99.90;;;;;;4962479;28;37277;-85
2022/09/29 10:11:29;;;;;;;4.57;2.38;;;14.60;99.90;;;;;;4957895;28;38589;-86
2022/09/29 10:14:09;;;;;;;3.20;1.90;;;14.50;99.90;;;;;;4966076;28;49080;-85
2022/09/29 10:17:09;;;;;;;3.13;1.50;;;14.60;99.90;;;;;;4967962;28;48724;-85
2022/09/29 10:20:04;;;;;;;4.20;3.03;;;14.60;99.90;;;;;;4958262;28;48472;-87
2022/09/29 10:22:31;;;;;;;6.38;4.38;;;14.60;99.90;;;;;;4963380;28;48795;-84
2022/09/29 10:25:19;;;;;;;4.13;2.92;;;14.70;99.90;;;;;;4964401;28;37398;-86
2022/09/29 10:27:51;;;;;;;3.97;2.97;;;14.90;99.90;;;;;;4957177;28;47517;-86
2022/09/29 10:30:22;;;;;;;4.35;2.35;;;15.00;99.90;;;;;;4956859;28;36200;-86
2022/09/29 10:32:51;;;;;;;4.43;2.80;;;15.00;99.90;;;;;;4967623;28;38552;-86
2022/09/29 10:35:34;;;;;;;5.15;2.35;;;15.30;99.90;;;;;;4968120;28;39500;-88
2022/09/29 10:38:06;;;;;;;2.38;2.17;;;15.40;99.90;;;;;;4965008;28;37386;-88
2022/09/29 10:40:34;;;;;;;7.97;2.00;;;15.50;99.90;;;;;;4943313;28;48252;-86
2022/09/29 10:43:22;;;;;;;5.60;2.38;;;15.70;99.90;;;;;;4966794;28;39016;-87
2022/09/29 10:45:49;;;;;;;2.28;2.08;;;16.00;99.90;;;;;;4960248;28;47194;-86
2022/09/29 10:48:15;;;;;;;2.60;1.63;;;15.90;99.90;;;;;;4966184;28;36892;-87
2022/09/29 10:51:03;;;;;;;3.35;1.90;;;15.70;99.90;;;;;;4967642;28;37703;-84
2022/09/29 10:53:30;;;;;;;4.57;1.70;;;15.80;99.90;;;;;;4958190;28;47811;-85
2022/09/29 10:55:59;;;;;;;4.00;1.90;;;16.00;99.90;;;;;;4979567;28;36995;-84
2022/09/29 10:58:41;;;;;;;2.75;1.33;;;16.10;99.90;;;;;;4943555;28;37054;-86
2022/09/29 11:01:12;;;;;;;3.25;1.90;;;16.10;99.90;;;;;;4958122;28;37067;-85
2022/09/29 11:03:46;;;;;;;4.30;2.95;;;16.20;99.90;;;;;;4981278;28;39985;-87
2022/09/29 11:06:14;;;;;;;2.97;2.30;;;16.50;99.90;;;;;;4965769;28;37269;-85
2022/09/29 11:09:00;;;;;;;3.05;2.03;;;16.60;99.90;;;;;;4980985;28;37399;-85
2022/09/29 11:11:33;;;;;;;3.55;1.83;;;16.40;99.90;;;;;;4964684;28;36632;-88
2022/09/29 11:14:00;;;;;;;4.13;1.05;;;16.30;99.90;;;;;;4961291;28;37542;-90
2022/09/29 11:16:35;;;;;;;1.80;1.00;;;16.30;99.90;;;;;;4957400;28;37300;-88
2022/09/29 11:19:13;;;;;;;1.23;1.02;;;16.60;99.90;;;;;;4954159;28;37169;-92
2022/09/29 11:21:42;;;;;;;0.80;0.80;;;16.50;99.90;;;;;;4960578;28;48335;-89
2022/09/29 11:24:58;;;;;;;3.15;1.35;;;16.70;99.90;;;;;;4964795;28;37938;-88
2022/09/29 11:27:42;;;;;;;1.58;1.00;;;16.70;99.90;;;;;;4901343;29;37562;-88
2022/09/29 11:30:18;;;;;;;1.45;0.82;;;17.00;99.90;;;;;;4889023;29;37537;-88
2022/09/29 11:33:22;;;;;;;1.75;1.05;;;17.00;99.90;;;;;;4943423;28;36196;-90
2022/09/29 11:36:01;;;;;;;1.45;0.80;;;17.00;99.90;;;;;;4972223;28;47373;-87
2022/09/29 11:38:36;;;;;;;1.80;0.73;;;17.40;99.90;;;;;;4959138;28;38912;-87
2022/09/29 11:41:21;;;;;;;0.80;0.80;;;17.60;99.90;;;;;;4963034;28;39666;-87
2022/09/29 11:44:00;;;;;;;3.13;1.10;;;17.60;99.90;;;;;;4964144;28;48762;-86
2022/09/29 11:46:47;;;;;;;3.03;1.10;;;17.60;99.90;;;;;;4962684;28;39713;-88
2022/09/29 11:49:28;;;;;;;1.70;1.02;;;17.40;99.90;;;;;;4962327;28;38047;-86
2022/09/29 11:52:21;;;;;;;2.65;1.10;;;17.40;99.90;;;;;;4962547;28;37434;-86
2022/09/29 11:55:27;;;;;;;2.42;0.90;;;17.70;99.90;;;;;;4959602;28;47196;-87
2022/09/29 11:58:19;;;;;;;3.85;1.08;;;17.50;99.90;;;;;;4965819;28;48169;-86
2022/09/29 12:00:54;;;;;;;1.73;0.87;;;17.30;99.90;;;;;;4940115;28;47184;-87
2022/09/29 12:03:44;;;;;;;1.48;1.00;;;16.80;99.90;;;;;;4963024;28;38816;-88
2022/09/29 12:06:30;;;;;;;2.75;0.70;;;16.90;99.90;;;;;;4981620;28;38855;-88
2022/09/29 12:09:15;;;;;;;1.25;0.38;;;17.40;99.90;;;;;;4957032;28;38647;-86
2022/09/29 12:11:52;;;;;;;1.75;0.60;;;17.20;99.90;;;;;;4977180;28;46096;-88
2022/09/29 12:14:52;;;;;;;2.90;0.52;;;17.10;99.90;;;;;;4968370;28;38327;-88
2022/09/29 12:17:19;;;;;;;0.57;0.47;;;17.50;99.90;;;;;;4953496;28;37387;-86
2022/09/29 12:19:51;;;;;;;1.15;0.70;;;17.70;99.90;;;;;;4963782;28;39908;-87
2022/09/29 12:22:19;;;;;;;2.30;0.60;;;17.50;99.90;;;;;;4961233;28;38850;-86
2022/09/29 12:24:54;;;;;;;0.30;0.30;;;17.60;99.90;;;;;;4964827;28;37334;-85
2022/09/29 12:27:39;;;;;;;1.15;0.50;;;17.50;99.90;;;;;;4966176;28;37953;-89
2022/09/29 12:30:20;;;;;;;1.13;0.52;;;17.30;99.90;;;;;;4961845;28;37983;-87
2022/09/29 12:33:12;;;;;;;0.60;0.60;;;17.30;99.90;;;;;;4962480;28;38375;-85
2022/09/29 12:35:47;;;;;;;2.17;0.73;;;17.40;99.90;;;;;;4959049;28;47300;-86
2022/09/29 12:38:29;;;;;;;1.33;0.85;;;16.70;99.90;;;;;;4962599;28;37898;-88
2022/09/29 12:41:20;;;;;;;1.05;0.77;;;17.10;99.90;;;;;;4962169;28;39200;-88
2022/09/29 12:44:03;;;;;;;0.85;0.70;;;17.40;99.90;;;;;;4961020;28;48649;-88
2022/09/29 12:46:45;;;;;;;0.65;0.60;;;17.30;99.90;;;;;;4984666;28;46931;-87
2022/09/29 12:49:35;;;;;;;2.08;0.93;;;17.30;99.90;;;;;;4956475;28;38874;-85
2022/09/29 12:52:04;;;;;;;2.53;0.70;;;17.20;99.90;;;;;;4964581;28;39733;-86
2022/09/29 12:54:44;;;;;;;0.60;0.38;;;17.60;99.90;;;;;;4966164;28;47570;-87
2022/09/29 12:57:15;;;;;;;1.02;0.57;;;17.90;99.90;;;;;;4963858;28;39370;-83
2022/09/29 12:59:58;;;;;;;1.15;0.52;;;18.20;99.90;;;;;;4964127;28;37903;-83
2022/09/29 13:02:49;;;;;;;1.15;0.50;;;18.40;99.90;;;;;;4946887;28;39577;-83
2022/09/29 13:05:24;;;;;;;1.20;0.50;;;18.60;99.90;;;;;;4962880;28;39197;-84
2022/09/29 13:07:53;;;;;;;0.95;0.65;;;18.80;99.90;;;;;;4958268;28;36700;-83
2022/09/29 13:10:28;;;;;;;1.42;0.77;;;18.80;99.90;;;;;;4959073;28;36535;-87
2022/09/29 13:13:03;;;;;;;0.77;0.60;;;18.70;99.90;;;;;;4958193;28;40199;-88
2022/09/29 13:15:52;;;;;;;1.25;0.60;;;18.50;99.90;;;;;;4960466;28;47234;-90
2022/09/29 13:18:51;;;;;;;0.75;0.50;;;18.30;99.90;;;;;;4964628;28;38873;-90
2022/09/29 13:21:55;;;;;;;3.47;0.52;;;18.10;99.90;;;;;;4965608;28;37549;-91
2022/09/29 13:24:37;;;;;;;1.35;0.50;;;17.90;99.90;;;;;;4984574;28;41700;-88
2022/09/29 13:27:19;;;;;;;1.70;0.60;;;17.80;99.90;;;;;;4987575;28;39198;-88
2022/09/29 13:29:55;;;;;;;1.63;0.70;;;17.70;99.90;;;;;;4968075;28;39811;-90
2022/09/29 13:32:22;;;;;;;2.38;0.60;;;17.60;99.90;;;;;;4966579;28;36212;-90
2022/09/29 13:34:54;;;;;;;0.93;0.70;;;17.20;99.90;;;;;;4970318;28;39821;-88
2022/09/29 13:37:24;;;;;;;0.75;0.60;;;17.20;99.90;;;;;;4970796;28;37719;-88
2022/09/29 13:40:04;;;;;;;4.00;0.88;;;17.20;99.90;;;;;;4968147;28;39520;-90
2022/09/29 13:42:43;;;;;;;0.95;0.90;;;17.10;99.90;;;;;;4961336;28;47072;-90
2022/09/29 13:45:19;;;;;;;0.90;0.90;;;16.90;99.90;;;;;;4986588;28;39689;-90
2022/09/29 13:47:51;;;;;;;1.05;0.80;;;16.80;99.90;;;;;;4971607;28;39133;-90
2022/09/29 13:50:43;;;;;;;1.40;1.00;;;16.90;99.90;;;;;;4971555;28;37513;-91
2022/09/29 13:53:33;;;;;;;1.10;0.90;;;17.20;99.90;;;;;;4964482;28;38322;-86
2022/09/29 13:56:03;;;;;;;1.15;0.70;;;17.30;99.90;;;;;;4959748;28;38101;-87
2022/09/29 13:58:38;;;;;;;1.23;0.68;;;17.40;99.90;;;;;;4982137;28;38001;-89
2022/09/29 14:01:06;;;;;;;2.55;0.80;;;17.30;99.90;;;;;;4968814;28;38711;-90
2022/09/29 14:03:44;;;;;;;3.05;0.80;;;17.20;99.90;;;;;;4968575;28;47458;-89
2022/09/29 14:06:31;;;;;;;0.95;0.63;;;17.10;99.90;;;;;;4967863;28;39054;-88
2022/09/29 14:09:14;;;;;;;1.10;0.77;;;17.00;99.90;;;;;;4972100;28;38222;-91
2022/09/29 14:11:49;;;;;;;1.67;0.98;;;16.80;99.90;;;;;;4969226;28;47776;-91
2022/09/29 14:14:23;;;;;;;1.63;0.70;;;16.70;99.90;;;;;;4965395;28;38144;-92
2022/09/29 14:16:54;;;;;;;3.90;1.17;;;16.70;99.90;;;;;;4965176;28;39254;-89
2022/09/29 14:19:41;;;;;;;2.33;1.20;;;16.80;99.90;;;;;;4966406;28;37596;-90
2022/09/29 14:22:29;;;;;;;2.10;0.90;;;16.80;99.90;;;;;;4967496;28;37327;-90
2022/09/29 14:25:11;;;;;;;3.13;1.30;;;16.70;99.90;;;;;;4971819;28;36829;-89
2022/09/29 14:27:58;;;;;;;1.95;0.98;;;16.80;99.90;;;;;;4977154;28;47132;-89
2022/09/29 14:30:44;;;;;;;2.42;1.02;;;16.70;99.90;;;;;;4968119;28;37232;-88
2022/09/29 14:33:20;;;;;;;2.97;1.08;;;16.70;99.90;;;;;;4964099;28;37287;-90
2022/09/29 14:36:17;;;;;;;2.05;1.15;;;16.70;99.90;;;;;;4985126;28;36327;-88
2022/09/29 14:38:49;;;;;;;4.70;0.95;;;16.70;99.90;;;;;;4975951;28;47114;-87
2022/09/29 14:41:33;;;;;;;2.93;1.03;;;16.70;99.90;;;;;;4964299;28;37939;-89
2022/09/29 14:44:09;;;;;;;1.80;0.95;;;16.80;99.90;;;;;;4959205;28;38241;-83
2022/09/29 14:52:41;;;;;;;2.00;1.20;;;17.00;99.90;;;;;;4964594;28;39307;-91
2022/09/29 14:55:22;;;;;;;2.05;1.20;;;16.80;99.90;;;;;;4960795;28;38209;-92
2022/09/29 14:57:59;;;;;;;2.35;1.17;;;16.80;99.90;;;;;;4979756;28;37192;-91
2022/09/29 15:00:36;;;;;;;1.98;1.17;;;16.70;99.90;;;;;;4959573;28;39264;-92
2022/09/29 15:03:06;;;;;;;3.22;1.20;;;16.70;99.90;;;;;;4978245;28;38802;-90